sensor_id;sensor_type;location;lat;lon;timestamp;P1;durP1;ratioP1;P2;durP2;ratioP2
58338;SDS011;68636;52.704;6.536;2023-05-19T00:01:13;20.10;;;5.60;;
58338;SDS011;68636;52.704;6.536;2023-05-19T00:03:56;21.58;;;7.00;;
58338;SDS011;68636;52.704;6.536;2023-05-19T00:06:26;23.08;;;6.68;;
58338;SDS011;68636;52.704;6.536;2023-05-19T00:08:56;30.10;;;6.85;;
58338;SDS011;68636;52.704;6.536;2023-05-19T00:11:24;29.45;;;6.93;;
58338;SDS011;68636;52.704;6.536;2023-05-19T00:16:20;19.88;;;5.97;;
58338;SDS011;68636;52.704;6.536;2023-05-19T00:18:47;27.40;;;6.50;;
58338;SDS011;68636;52.704;6.536;2023-05-19T00:21:13;32.00;;;6.53;;
58338;SDS011;68636;52.704;6.536;2023-05-19T00:23:39;25.98;;;6.85;;
58338;SDS011;68636;52.704;6.536;2023-05-19T00:26:05;32.70;;;6.63;;
58338;SDS011;68636;52.704;6.536;2023-05-19T00:28:30;25.17;;;6.70;;
58338;SDS011;68636;52.704;6.536;2023-05-19T00:30:56;34.65;;;7.43;;
58338;SDS011;68636;52.704;6.536;2023-05-19T00:33:22;27.40;;;6.90;;
58338;SDS011;68636;52.704;6.536;2023-05-19T00:35:47;28.90;;;6.75;;
58338;SDS011;68636;52.704;6.536;2023-05-19T00:38:14;25.77;;;6.72;;
58338;SDS011;68636;52.704;6.536;2023-05-19T00:40:39;23.25;;;6.47;;
58338;SDS011;68636;52.704;6.536;2023-05-19T00:43:05;23.45;;;6.85;;
58338;SDS011;68636;52.704;6.536;2023-05-19T00:45:32;33.10;;;7.90;;
58338;SDS011;68636;52.704;6.536;2023-05-19T00:47:59;25.80;;;7.50;;
58338;SDS011;68636;52.704;6.536;2023-05-19T00:50:25;26.67;;;7.70;;
58338;SDS011;68636;52.704;6.536;2023-05-19T00:52:53;31.05;;;7.30;;
58338;SDS011;68636;52.704;6.536;2023-05-19T00:55:25;25.80;;;7.40;;
58338;SDS011;68636;52.704;6.536;2023-05-19T00:57:54;26.67;;;6.95;;
58338;SDS011;68636;52.704;6.536;2023-05-19T01:00:21;28.95;;;7.88;;
58338;SDS011;68636;52.704;6.536;2023-05-19T01:02:46;26.20;;;7.03;;
58338;SDS011;68636;52.704;6.536;2023-05-19T01:07:40;32.92;;;6.85;;
58338;SDS011;68636;52.704;6.536;2023-05-19T01:10:07;34.40;;;9.27;;
58338;SDS011;68636;52.704;6.536;2023-05-19T01:12:33;31.48;;;7.65;;
58338;SDS011;68636;52.704;6.536;2023-05-19T01:15:00;28.58;;;7.72;;
58338;SDS011;68636;52.704;6.536;2023-05-19T01:17:51;32.15;;;8.38;;
58338;SDS011;68636;52.704;6.536;2023-05-19T01:20:34;29.95;;;8.60;;
58338;SDS011;68636;52.704;6.536;2023-05-19T01:30:40;35.70;;;8.73;;
58338;SDS011;68636;52.704;6.536;2023-05-19T01:33:09;30.95;;;9.23;;
58338;SDS011;68636;52.704;6.536;2023-05-19T01:35:38;39.38;;;8.95;;
58338;SDS011;68636;52.704;6.536;2023-05-19T01:38:06;43.22;;;9.68;;
58338;SDS011;68636;52.704;6.536;2023-05-19T01:40:33;36.53;;;8.63;;
58338;SDS011;68636;52.704;6.536;2023-05-19T01:43:00;35.95;;;8.48;;
58338;SDS011;68636;52.704;6.536;2023-05-19T01:45:27;32.72;;;9.27;;
58338;SDS011;68636;52.704;6.536;2023-05-19T01:47:55;34.30;;;8.18;;
58338;SDS011;68636;52.704;6.536;2023-05-19T01:50:22;30.83;;;8.75;;
58338;SDS011;68636;52.704;6.536;2023-05-19T01:52:49;43.40;;;9.50;;
58338;SDS011;68636;52.704;6.536;2023-05-19T01:55:17;41.38;;;10.60;;
58338;SDS011;68636;52.704;6.536;2023-05-19T01:57:46;32.50;;;8.10;;
58338;SDS011;68636;52.704;6.536;2023-05-19T02:09:24;37.33;;;9.32;;
58338;SDS011;68636;52.704;6.536;2023-05-19T02:11:54;38.97;;;9.25;;
58338;SDS011;68636;52.704;6.536;2023-05-19T02:14:32;37.33;;;8.63;;
58338;SDS011;68636;52.704;6.536;2023-05-19T02:17:04;37.88;;;9.15;;
58338;SDS011;68636;52.704;6.536;2023-05-19T02:19:31;40.80;;;10.17;;
58338;SDS011;68636;52.704;6.536;2023-05-19T02:21:59;31.83;;;9.07;;
58338;SDS011;68636;52.704;6.536;2023-05-19T02:24:25;38.92;;;11.05;;
58338;SDS011;68636;52.704;6.536;2023-05-19T02:26:51;38.50;;;9.57;;
58338;SDS011;68636;52.704;6.536;2023-05-19T02:29:18;44.53;;;10.18;;
58338;SDS011;68636;52.704;6.536;2023-05-19T02:31:44;43.05;;;8.93;;
58338;SDS011;68636;52.704;6.536;2023-05-19T02:34:10;40.83;;;8.45;;
58338;SDS011;68636;52.704;6.536;2023-05-19T02:36:39;40.20;;;9.98;;
58338;SDS011;68636;52.704;6.536;2023-05-19T02:39:07;36.28;;;8.50;;
58338;SDS011;68636;52.704;6.536;2023-05-19T02:41:33;37.90;;;9.13;;
58338;SDS011;68636;52.704;6.536;2023-05-19T02:43:59;37.67;;;9.60;;
58338;SDS011;68636;52.704;6.536;2023-05-19T02:46:25;35.97;;;8.18;;
58338;SDS011;68636;52.704;6.536;2023-05-19T02:48:51;39.15;;;9.13;;
58338;SDS011;68636;52.704;6.536;2023-05-19T02:51:17;43.57;;;8.53;;
58338;SDS011;68636;52.704;6.536;2023-05-19T02:53:43;39.60;;;9.15;;
58338;SDS011;68636;52.704;6.536;2023-05-19T02:56:09;35.90;;;8.55;;
58338;SDS011;68636;52.704;6.536;2023-05-19T02:58:35;31.42;;;8.80;;
58338;SDS011;68636;52.704;6.536;2023-05-19T03:01:00;34.05;;;8.88;;
58338;SDS011;68636;52.704;6.536;2023-05-19T03:03:26;31.77;;;7.93;;
58338;SDS011;68636;52.704;6.536;2023-05-19T03:05:52;32.78;;;8.30;;
58338;SDS011;68636;52.704;6.536;2023-05-19T03:08:18;36.75;;;9.55;;
58338;SDS011;68636;52.704;6.536;2023-05-19T03:10:45;33.47;;;8.90;;
58338;SDS011;68636;52.704;6.536;2023-05-19T03:13:11;43.53;;;8.80;;
58338;SDS011;68636;52.704;6.536;2023-05-19T03:15:37;33.60;;;8.00;;
58338;SDS011;68636;52.704;6.536;2023-05-19T03:18:03;38.20;;;9.68;;
58338;SDS011;68636;52.704;6.536;2023-05-19T03:20:29;32.90;;;7.93;;
58338;SDS011;68636;52.704;6.536;2023-05-19T03:22:55;26.38;;;8.02;;
58338;SDS011;68636;52.704;6.536;2023-05-19T03:25:21;24.92;;;7.18;;
58338;SDS011;68636;52.704;6.536;2023-05-19T03:27:47;41.78;;;9.88;;
58338;SDS011;68636;52.704;6.536;2023-05-19T03:30:13;32.30;;;8.98;;
58338;SDS011;68636;52.704;6.536;2023-05-19T03:32:39;25.60;;;7.80;;
58338;SDS011;68636;52.704;6.536;2023-05-19T03:35:05;30.15;;;9.65;;
58338;SDS011;68636;52.704;6.536;2023-05-19T03:37:31;30.75;;;8.60;;
58338;SDS011;68636;52.704;6.536;2023-05-19T03:39:57;35.03;;;8.80;;
58338;SDS011;68636;52.704;6.536;2023-05-19T03:42:23;36.03;;;9.13;;
58338;SDS011;68636;52.704;6.536;2023-05-19T03:44:49;31.25;;;8.68;;
58338;SDS011;68636;52.704;6.536;2023-05-19T03:47:15;38.03;;;8.27;;
58338;SDS011;68636;52.704;6.536;2023-05-19T03:49:41;31.45;;;9.10;;
58338;SDS011;68636;52.704;6.536;2023-05-19T03:52:07;27.95;;;8.13;;
58338;SDS011;68636;52.704;6.536;2023-05-19T03:54:34;34.00;;;8.52;;
58338;SDS011;68636;52.704;6.536;2023-05-19T03:57:00;33.60;;;8.20;;
58338;SDS011;68636;52.704;6.536;2023-05-19T03:59:26;35.88;;;8.73;;
58338;SDS011;68636;52.704;6.536;2023-05-19T04:01:52;35.05;;;8.18;;
58338;SDS011;68636;52.704;6.536;2023-05-19T04:04:18;31.73;;;8.93;;
58338;SDS011;68636;52.704;6.536;2023-05-19T04:06:45;40.08;;;9.27;;
58338;SDS011;68636;52.704;6.536;2023-05-19T04:09:12;37.03;;;8.35;;
58338;SDS011;68636;52.704;6.536;2023-05-19T04:11:40;37.45;;;8.38;;
58338;SDS011;68636;52.704;6.536;2023-05-19T04:14:06;36.20;;;8.63;;
58338;SDS011;68636;52.704;6.536;2023-05-19T04:16:33;36.78;;;9.55;;
58338;SDS011;68636;52.704;6.536;2023-05-19T04:18:59;30.20;;;8.95;;
58338;SDS011;68636;52.704;6.536;2023-05-19T04:21:25;35.10;;;8.85;;
58338;SDS011;68636;52.704;6.536;2023-05-19T04:23:51;35.80;;;8.85;;
58338;SDS011;68636;52.704;6.536;2023-05-19T04:26:17;31.05;;;8.70;;
58338;SDS011;68636;52.704;6.536;2023-05-19T04:28:45;32.72;;;7.85;;
58338;SDS011;68636;52.704;6.536;2023-05-19T04:31:14;35.22;;;9.10;;
58338;SDS011;68636;52.704;6.536;2023-05-19T04:33:40;34.95;;;7.95;;
58338;SDS011;68636;52.704;6.536;2023-05-19T04:36:06;32.65;;;8.82;;
58338;SDS011;68636;52.704;6.536;2023-05-19T04:38:35;31.92;;;8.38;;
58338;SDS011;68636;52.704;6.536;2023-05-19T04:41:04;37.40;;;8.65;;
58338;SDS011;68636;52.704;6.536;2023-05-19T04:43:34;30.15;;;8.75;;
58338;SDS011;68636;52.704;6.536;2023-05-19T04:46:00;34.73;;;8.17;;
58338;SDS011;68636;52.704;6.536;2023-05-19T04:48:30;31.52;;;8.43;;
58338;SDS011;68636;52.704;6.536;2023-05-19T04:53:26;26.23;;;7.78;;
58338;SDS011;68636;52.704;6.536;2023-05-19T04:55:56;24.75;;;7.32;;
58338;SDS011;68636;52.704;6.536;2023-05-19T04:58:22;30.23;;;7.47;;
58338;SDS011;68636;52.704;6.536;2023-05-19T05:00:50;28.73;;;7.70;;
58338;SDS011;68636;52.704;6.536;2023-05-19T05:03:16;25.83;;;7.13;;
58338;SDS011;68636;52.704;6.536;2023-05-19T05:05:42;25.98;;;7.90;;
58338;SDS011;68636;52.704;6.536;2023-05-19T05:08:11;24.60;;;7.95;;
58338;SDS011;68636;52.704;6.536;2023-05-19T05:10:39;26.50;;;7.95;;
58338;SDS011;68636;52.704;6.536;2023-05-19T05:13:05;27.58;;;8.10;;
58338;SDS011;68636;52.704;6.536;2023-05-19T05:15:31;20.30;;;7.25;;
58338;SDS011;68636;52.704;6.536;2023-05-19T05:17:57;20.77;;;7.60;;
58338;SDS011;68636;52.704;6.536;2023-05-19T05:20:23;22.15;;;9.07;;
58338;SDS011;68636;52.704;6.536;2023-05-19T05:22:49;21.58;;;8.43;;
58338;SDS011;68636;52.704;6.536;2023-05-19T05:25:15;26.45;;;8.13;;
58338;SDS011;68636;52.704;6.536;2023-05-19T05:27:42;25.42;;;7.63;;
58338;SDS011;68636;52.704;6.536;2023-05-19T05:30:07;24.65;;;8.02;;
58338;SDS011;68636;52.704;6.536;2023-05-19T05:32:33;26.73;;;7.93;;
58338;SDS011;68636;52.704;6.536;2023-05-19T05:34:59;18.73;;;7.10;;
58338;SDS011;68636;52.704;6.536;2023-05-19T05:37:25;22.63;;;7.82;;
58338;SDS011;68636;52.704;6.536;2023-05-19T05:39:51;22.02;;;7.13;;
58338;SDS011;68636;52.704;6.536;2023-05-19T05:42:17;24.55;;;7.22;;
58338;SDS011;68636;52.704;6.536;2023-05-19T05:44:42;18.50;;;6.88;;
58338;SDS011;68636;52.704;6.536;2023-05-19T05:47:08;20.27;;;6.88;;
58338;SDS011;68636;52.704;6.536;2023-05-19T05:49:36;24.92;;;7.38;;
58338;SDS011;68636;52.704;6.536;2023-05-19T05:52:02;18.93;;;7.10;;
58338;SDS011;68636;52.704;6.536;2023-05-19T05:54:29;16.40;;;6.38;;
58338;SDS011;68636;52.704;6.536;2023-05-19T05:56:54;18.92;;;6.18;;
58338;SDS011;68636;52.704;6.536;2023-05-19T05:59:21;16.30;;;6.40;;
58338;SDS011;68636;52.704;6.536;2023-05-19T06:01:46;18.73;;;6.20;;
58338;SDS011;68636;52.704;6.536;2023-05-19T06:04:12;23.55;;;6.95;;
58338;SDS011;68636;52.704;6.536;2023-05-19T06:06:38;17.23;;;6.38;;
58338;SDS011;68636;52.704;6.536;2023-05-19T06:09:04;14.90;;;5.95;;
58338;SDS011;68636;52.704;6.536;2023-05-19T06:11:29;15.57;;;6.03;;
58338;SDS011;68636;52.704;6.536;2023-05-19T06:13:55;23.13;;;6.18;;
58338;SDS011;68636;52.704;6.536;2023-05-19T06:16:21;17.15;;;5.50;;
58338;SDS011;68636;52.704;6.536;2023-05-19T06:18:47;16.02;;;6.55;;
58338;SDS011;68636;52.704;6.536;2023-05-19T06:21:12;13.57;;;6.50;;
58338;SDS011;68636;52.704;6.536;2023-05-19T06:23:41;16.92;;;6.18;;
58338;SDS011;68636;52.704;6.536;2023-05-19T06:26:07;22.55;;;7.72;;
58338;SDS011;68636;52.704;6.536;2023-05-19T06:28:33;18.88;;;5.57;;
58338;SDS011;68636;52.704;6.536;2023-05-19T06:30:59;17.20;;;6.05;;
58338;SDS011;68636;52.704;6.536;2023-05-19T06:33:25;15.63;;;5.90;;
58338;SDS011;68636;52.704;6.536;2023-05-19T06:35:50;16.25;;;5.70;;
58338;SDS011;68636;52.704;6.536;2023-05-19T06:38:16;12.93;;;4.95;;
58338;SDS011;68636;52.704;6.536;2023-05-19T06:40:42;25.35;;;7.28;;
58338;SDS011;68636;52.704;6.536;2023-05-19T06:43:08;15.75;;;6.38;;
58338;SDS011;68636;52.704;6.536;2023-05-19T06:45:34;17.95;;;5.65;;
58338;SDS011;68636;52.704;6.536;2023-05-19T06:48:00;15.98;;;5.93;;
58338;SDS011;68636;52.704;6.536;2023-05-19T06:50:25;13.23;;;5.32;;
58338;SDS011;68636;52.704;6.536;2023-05-19T06:52:51;13.60;;;5.78;;
58338;SDS011;68636;52.704;6.536;2023-05-19T06:55:17;14.38;;;4.97;;
58338;SDS011;68636;52.704;6.536;2023-05-19T06:57:43;13.80;;;5.10;;
58338;SDS011;68636;52.704;6.536;2023-05-19T07:00:09;14.00;;;4.95;;
58338;SDS011;68636;52.704;6.536;2023-05-19T07:02:36;15.35;;;4.85;;
58338;SDS011;68636;52.704;6.536;2023-05-19T07:05:05;11.90;;;4.70;;
58338;SDS011;68636;52.704;6.536;2023-05-19T07:07:32;11.93;;;4.63;;
58338;SDS011;68636;52.704;6.536;2023-05-19T07:09:58;17.65;;;4.68;;
58338;SDS011;68636;52.704;6.536;2023-05-19T07:12:23;16.33;;;5.00;;
58338;SDS011;68636;52.704;6.536;2023-05-19T07:14:50;12.38;;;3.90;;
58338;SDS011;68636;52.704;6.536;2023-05-19T07:17:17;9.60;;;3.55;;
58338;SDS011;68636;52.704;6.536;2023-05-19T07:19:42;10.45;;;4.25;;
58338;SDS011;68636;52.704;6.536;2023-05-19T07:22:08;14.38;;;3.80;;
58338;SDS011;68636;52.704;6.536;2023-05-19T07:24:34;13.98;;;4.78;;
58338;SDS011;68636;52.704;6.536;2023-05-19T07:27:00;10.43;;;4.20;;
58338;SDS011;68636;52.704;6.536;2023-05-19T07:29:25;13.05;;;4.35;;
58338;SDS011;68636;52.704;6.536;2023-05-19T07:31:51;12.98;;;3.53;;
58338;SDS011;68636;52.704;6.536;2023-05-19T07:34:21;10.00;;;3.58;;
58338;SDS011;68636;52.704;6.536;2023-05-19T07:36:48;12.35;;;3.50;;
58338;SDS011;68636;52.704;6.536;2023-05-19T07:39:13;12.02;;;4.07;;
58338;SDS011;68636;52.704;6.536;2023-05-19T07:41:39;10.18;;;3.13;;
58338;SDS011;68636;52.704;6.536;2023-05-19T07:44:05;12.65;;;3.30;;
58338;SDS011;68636;52.704;6.536;2023-05-19T07:46:34;12.20;;;3.80;;
58338;SDS011;68636;52.704;6.536;2023-05-19T07:49:01;12.52;;;3.08;;
58338;SDS011;68636;52.704;6.536;2023-05-19T07:51:27;10.85;;;2.78;;
58338;SDS011;68636;52.704;6.536;2023-05-19T07:53:53;14.43;;;3.08;;
58338;SDS011;68636;52.704;6.536;2023-05-19T07:56:19;6.50;;;2.58;;
58338;SDS011;68636;52.704;6.536;2023-05-19T07:58:45;9.55;;;2.90;;
58338;SDS011;68636;52.704;6.536;2023-05-19T08:01:11;8.18;;;2.80;;
58338;SDS011;68636;52.704;6.536;2023-05-19T08:03:37;9.90;;;2.60;;
58338;SDS011;68636;52.704;6.536;2023-05-19T08:06:02;9.50;;;3.10;;
58338;SDS011;68636;52.704;6.536;2023-05-19T08:08:28;9.98;;;2.90;;
58338;SDS011;68636;52.704;6.536;2023-05-19T08:10:54;13.27;;;2.63;;
58338;SDS011;68636;52.704;6.536;2023-05-19T08:13:20;12.02;;;2.50;;
58338;SDS011;68636;52.704;6.536;2023-05-19T08:15:46;7.88;;;2.45;;
58338;SDS011;68636;52.704;6.536;2023-05-19T08:18:11;9.52;;;2.30;;
58338;SDS011;68636;52.704;6.536;2023-05-19T08:20:37;11.93;;;2.70;;
58338;SDS011;68636;52.704;6.536;2023-05-19T08:23:03;9.27;;;2.25;;
58338;SDS011;68636;52.704;6.536;2023-05-19T08:25:29;8.43;;;2.45;;
58338;SDS011;68636;52.704;6.536;2023-05-19T08:27:55;10.80;;;2.60;;
58338;SDS011;68636;52.704;6.536;2023-05-19T08:30:20;11.02;;;2.80;;
58338;SDS011;68636;52.704;6.536;2023-05-19T08:32:46;8.10;;;2.40;;
58338;SDS011;68636;52.704;6.536;2023-05-19T08:35:12;10.07;;;2.30;;
58338;SDS011;68636;52.704;6.536;2023-05-19T08:37:38;8.00;;;2.60;;
58338;SDS011;68636;52.704;6.536;2023-05-19T08:40:04;8.73;;;2.17;;
58338;SDS011;68636;52.704;6.536;2023-05-19T08:44:58;7.47;;;1.88;;
58338;SDS011;68636;52.704;6.536;2023-05-19T08:47:25;12.05;;;2.28;;
58338;SDS011;68636;52.704;6.536;2023-05-19T08:49:53;8.40;;;1.90;;
58338;SDS011;68636;52.704;6.536;2023-05-19T08:57:58;11.88;;;2.53;;
58338;SDS011;68636;52.704;6.536;2023-05-19T09:00:26;8.25;;;2.33;;
58338;SDS011;68636;52.704;6.536;2023-05-19T09:02:52;10.55;;;2.28;;
58338;SDS011;68636;52.704;6.536;2023-05-19T09:05:18;9.77;;;2.30;;
58338;SDS011;68636;52.704;6.536;2023-05-19T09:07:45;11.85;;;1.80;;
58338;SDS011;68636;52.704;6.536;2023-05-19T09:12:43;8.95;;;1.83;;
58338;SDS011;68636;52.704;6.536;2023-05-19T09:15:10;9.70;;;2.47;;
58338;SDS011;68636;52.704;6.536;2023-05-19T09:17:37;9.32;;;2.28;;
58338;SDS011;68636;52.704;6.536;2023-05-19T09:20:04;9.37;;;2.47;;
58338;SDS011;68636;52.704;6.536;2023-05-19T09:22:43;9.32;;;2.45;;
58338;SDS011;68636;52.704;6.536;2023-05-19T09:25:26;11.52;;;2.40;;
58338;SDS011;68636;52.704;6.536;2023-05-19T09:27:52;9.20;;;1.95;;
58338;SDS011;68636;52.704;6.536;2023-05-19T09:32:45;7.47;;;1.92;;
58338;SDS011;68636;52.704;6.536;2023-05-19T09:35:11;7.00;;;1.80;;
58338;SDS011;68636;52.704;6.536;2023-05-19T09:37:41;8.23;;;2.20;;
58338;SDS011;68636;52.704;6.536;2023-05-19T09:40:07;10.75;;;2.00;;
58338;SDS011;68636;52.704;6.536;2023-05-19T09:42:38;9.80;;;1.95;;
58338;SDS011;68636;52.704;6.536;2023-05-19T09:45:05;10.00;;;2.25;;
58338;SDS011;68636;52.704;6.536;2023-05-19T09:47:32;6.75;;;1.80;;
58338;SDS011;68636;52.704;6.536;2023-05-19T09:50:00;7.50;;;1.60;;
58338;SDS011;68636;52.704;6.536;2023-05-19T09:52:25;7.47;;;2.28;;
58338;SDS011;68636;52.704;6.536;2023-05-19T09:54:51;9.43;;;1.98;;
58338;SDS011;68636;52.704;6.536;2023-05-19T09:57:19;10.05;;;1.80;;
58338;SDS011;68636;52.704;6.536;2023-05-19T09:59:51;7.57;;;2.15;;
58338;SDS011;68636;52.704;6.536;2023-05-19T10:02:18;6.88;;;1.77;;
58338;SDS011;68636;52.704;6.536;2023-05-19T10:04:45;8.30;;;1.55;;
58338;SDS011;68636;52.704;6.536;2023-05-19T10:07:12;9.63;;;2.17;;
58338;SDS011;68636;52.704;6.536;2023-05-19T10:09:39;5.95;;;1.80;;
58338;SDS011;68636;52.704;6.536;2023-05-19T10:12:06;6.88;;;1.80;;
58338;SDS011;68636;52.704;6.536;2023-05-19T10:14:35;10.50;;;1.92;;
58338;SDS011;68636;52.704;6.536;2023-05-19T10:17:01;7.70;;;1.60;;
58338;SDS011;68636;52.704;6.536;2023-05-19T10:19:28;10.38;;;2.17;;
58338;SDS011;68636;52.704;6.536;2023-05-19T10:21:54;9.37;;;2.00;;
58338;SDS011;68636;52.704;6.536;2023-05-19T10:24:20;9.63;;;2.10;;
58338;SDS011;68636;52.704;6.536;2023-05-19T10:26:50;6.63;;;1.80;;
58338;SDS011;68636;52.704;6.536;2023-05-19T10:29:26;7.22;;;1.73;;
58338;SDS011;68636;52.704;6.536;2023-05-19T10:31:54;8.70;;;2.05;;
58338;SDS011;68636;52.704;6.536;2023-05-19T10:40:20;5.97;;;1.90;;
58338;SDS011;68636;52.704;6.536;2023-05-19T10:45:56;7.35;;;1.60;;
58338;SDS011;68636;52.704;6.536;2023-05-19T10:48:22;10.47;;;1.83;;
58338;SDS011;68636;52.704;6.536;2023-05-19T10:50:48;8.23;;;1.90;;
58338;SDS011;68636;52.704;6.536;2023-05-19T10:53:18;10.50;;;1.88;;
58338;SDS011;68636;52.704;6.536;2023-05-19T11:01:00;6.82;;;1.88;;
58338;SDS011;68636;52.704;6.536;2023-05-19T11:03:27;11.02;;;1.45;;
58338;SDS011;68636;52.704;6.536;2023-05-19T11:06:15;7.00;;;1.63;;
58338;SDS011;68636;52.704;6.536;2023-05-19T11:08:52;7.30;;;2.05;;
58338;SDS011;68636;52.704;6.536;2023-05-19T11:11:20;5.72;;;1.67;;
58338;SDS011;68636;52.704;6.536;2023-05-19T11:13:48;8.82;;;2.03;;
58338;SDS011;68636;52.704;6.536;2023-05-19T11:16:19;8.45;;;1.60;;
58338;SDS011;68636;52.704;6.536;2023-05-19T11:18:55;5.82;;;1.40;;
58338;SDS011;68636;52.704;6.536;2023-05-19T11:21:23;6.88;;;1.58;;
58338;SDS011;68636;52.704;6.536;2023-05-19T11:24:06;5.15;;;1.20;;
58338;SDS011;68636;52.704;6.536;2023-05-19T11:26:39;6.10;;;1.40;;
58338;SDS011;68636;52.704;6.536;2023-05-19T11:29:09;5.43;;;1.50;;
58338;SDS011;68636;52.704;6.536;2023-05-19T11:31:35;7.53;;;1.25;;
58338;SDS011;68636;52.704;6.536;2023-05-19T11:34:03;6.95;;;1.33;;
58338;SDS011;68636;52.704;6.536;2023-05-19T11:36:31;7.18;;;1.67;;
58338;SDS011;68636;52.704;6.536;2023-05-19T11:38:58;7.65;;;1.50;;
58338;SDS011;68636;52.704;6.536;2023-05-19T11:41:25;7.55;;;1.30;;
58338;SDS011;68636;52.704;6.536;2023-05-19T11:46:18;7.03;;;1.13;;
58338;SDS011;68636;52.704;6.536;2023-05-19T11:48:45;6.17;;;1.20;;
58338;SDS011;68636;52.704;6.536;2023-05-19T11:51:12;5.88;;;1.08;;
58338;SDS011;68636;52.704;6.536;2023-05-19T11:53:38;3.43;;;1.07;;
58338;SDS011;68636;52.704;6.536;2023-05-19T11:56:04;4.93;;;1.10;;
58338;SDS011;68636;52.704;6.536;2023-05-19T11:58:30;7.43;;;1.13;;
58338;SDS011;68636;52.704;6.536;2023-05-19T12:00:55;11.20;;;1.50;;
58338;SDS011;68636;52.704;6.536;2023-05-19T12:03:21;7.50;;;1.37;;
58338;SDS011;68636;52.704;6.536;2023-05-19T12:05:52;5.68;;;1.30;;
58338;SDS011;68636;52.704;6.536;2023-05-19T12:08:18;7.63;;;1.17;;
58338;SDS011;68636;52.704;6.536;2023-05-19T12:10:46;7.47;;;1.20;;
58338;SDS011;68636;52.704;6.536;2023-05-19T12:13:15;6.53;;;1.00;;
58338;SDS011;68636;52.704;6.536;2023-05-19T12:15:41;6.30;;;1.17;;
58338;SDS011;68636;52.704;6.536;2023-05-19T12:18:07;7.23;;;1.53;;
58338;SDS011;68636;52.704;6.536;2023-05-19T12:20:33;6.50;;;1.35;;
58338;SDS011;68636;52.704;6.536;2023-05-19T12:22:59;7.10;;;1.33;;
58338;SDS011;68636;52.704;6.536;2023-05-19T12:25:29;4.50;;;1.30;;
58338;SDS011;68636;52.704;6.536;2023-05-19T12:27:59;8.55;;;1.30;;
58338;SDS011;68636;52.704;6.536;2023-05-19T12:30:29;5.82;;;1.02;;
58338;SDS011;68636;52.704;6.536;2023-05-19T12:32:56;5.53;;;1.35;;
58338;SDS011;68636;52.704;6.536;2023-05-19T12:35:25;5.25;;;1.17;;
58338;SDS011;68636;52.704;6.536;2023-05-19T12:38:00;6.50;;;1.10;;
58338;SDS011;68636;52.704;6.536;2023-05-19T12:40:31;7.32;;;1.25;;
58338;SDS011;68636;52.704;6.536;2023-05-19T12:42:58;6.63;;;1.30;;
58338;SDS011;68636;52.704;6.536;2023-05-19T12:45:24;5.57;;;1.10;;
58338;SDS011;68636;52.704;6.536;2023-05-19T12:47:51;4.38;;;1.10;;
58338;SDS011;68636;52.704;6.536;2023-05-19T12:50:17;3.80;;;1.20;;
58338;SDS011;68636;52.704;6.536;2023-05-19T12:55:11;4.55;;;1.10;;
58338;SDS011;68636;52.704;6.536;2023-05-19T12:57:46;7.30;;;1.35;;
58338;SDS011;68636;52.704;6.536;2023-05-19T13:03:04;6.85;;;1.10;;
58338;SDS011;68636;52.704;6.536;2023-05-19T13:08:03;9.68;;;1.50;;
58338;SDS011;68636;52.704;6.536;2023-05-19T13:10:34;7.37;;;1.37;;
58338;SDS011;68636;52.704;6.536;2023-05-19T13:13:01;7.13;;;1.20;;
58338;SDS011;68636;52.704;6.536;2023-05-19T13:15:28;6.85;;;1.27;;
58338;SDS011;68636;52.704;6.536;2023-05-19T13:17:56;6.80;;;1.40;;
58338;SDS011;68636;52.704;6.536;2023-05-19T13:20:22;5.85;;;1.20;;
58338;SDS011;68636;52.704;6.536;2023-05-19T13:22:48;5.68;;;1.20;;
58338;SDS011;68636;52.704;6.536;2023-05-19T13:25:14;6.57;;;1.20;;
58338;SDS011;68636;52.704;6.536;2023-05-19T13:27:41;9.15;;;1.20;;
58338;SDS011;68636;52.704;6.536;2023-05-19T13:30:08;5.53;;;1.42;;
58338;SDS011;68636;52.704;6.536;2023-05-19T13:32:34;9.13;;;1.30;;
58338;SDS011;68636;52.704;6.536;2023-05-19T13:35:00;6.03;;;1.50;;
58338;SDS011;68636;52.704;6.536;2023-05-19T13:37:26;4.27;;;1.10;;
58338;SDS011;68636;52.704;6.536;2023-05-19T13:39:52;6.13;;;1.55;;
58338;SDS011;68636;52.704;6.536;2023-05-19T13:42:18;5.60;;;1.30;;
58338;SDS011;68636;52.704;6.536;2023-05-19T13:44:44;3.83;;;1.40;;
58338;SDS011;68636;52.704;6.536;2023-05-19T13:47:10;3.95;;;1.25;;
58338;SDS011;68636;52.704;6.536;2023-05-19T13:49:36;5.40;;;1.50;;
58338;SDS011;68636;52.704;6.536;2023-05-19T13:54:28;5.85;;;1.42;;
58338;SDS011;68636;52.704;6.536;2023-05-19T13:56:54;6.50;;;1.70;;
58338;SDS011;68636;52.704;6.536;2023-05-19T13:59:20;5.80;;;1.50;;
58338;SDS011;68636;52.704;6.536;2023-05-19T14:01:46;7.03;;;1.50;;
58338;SDS011;68636;52.704;6.536;2023-05-19T14:04:12;7.55;;;1.80;;
58338;SDS011;68636;52.704;6.536;2023-05-19T14:06:40;5.90;;;1.50;;
58338;SDS011;68636;52.704;6.536;2023-05-19T14:09:06;5.30;;;1.33;;
58338;SDS011;68636;52.704;6.536;2023-05-19T14:11:31;5.23;;;1.53;;
58338;SDS011;68636;52.704;6.536;2023-05-19T14:13:57;7.77;;;1.37;;
58338;SDS011;68636;52.704;6.536;2023-05-19T14:16:23;5.97;;;1.47;;
58338;SDS011;68636;52.704;6.536;2023-05-19T14:18:50;8.40;;;1.60;;
58338;SDS011;68636;52.704;6.536;2023-05-19T14:21:16;5.07;;;1.53;;
58338;SDS011;68636;52.704;6.536;2023-05-19T14:23:42;6.03;;;1.58;;
58338;SDS011;68636;52.704;6.536;2023-05-19T14:26:08;5.87;;;1.40;;
58338;SDS011;68636;52.704;6.536;2023-05-19T14:28:34;4.87;;;1.20;;
58338;SDS011;68636;52.704;6.536;2023-05-19T14:30:59;6.53;;;1.33;;
58338;SDS011;68636;52.704;6.536;2023-05-19T14:33:25;5.53;;;1.60;;
58338;SDS011;68636;52.704;6.536;2023-05-19T14:35:51;6.80;;;1.50;;
58338;SDS011;68636;52.704;6.536;2023-05-19T14:38:17;6.73;;;1.70;;
58338;SDS011;68636;52.704;6.536;2023-05-19T14:40:43;6.93;;;1.70;;
58338;SDS011;68636;52.704;6.536;2023-05-19T14:43:09;6.03;;;1.55;;
58338;SDS011;68636;52.704;6.536;2023-05-19T14:45:37;10.02;;;1.60;;
58338;SDS011;68636;52.704;6.536;2023-05-19T14:48:02;5.15;;;1.42;;
58338;SDS011;68636;52.704;6.536;2023-05-19T14:50:29;7.78;;;1.52;;
58338;SDS011;68636;52.704;6.536;2023-05-19T14:52:55;4.70;;;1.20;;
58338;SDS011;68636;52.704;6.536;2023-05-19T14:55:21;6.53;;;1.30;;
58338;SDS011;68636;52.704;6.536;2023-05-19T14:57:47;6.30;;;1.50;;
58338;SDS011;68636;52.704;6.536;2023-05-19T15:00:14;8.15;;;1.50;;
58338;SDS011;68636;52.704;6.536;2023-05-19T15:02:40;7.45;;;2.10;;
58338;SDS011;68636;52.704;6.536;2023-05-19T15:05:06;6.30;;;1.50;;
58338;SDS011;68636;52.704;6.536;2023-05-19T15:07:32;7.70;;;2.40;;
58338;SDS011;68636;52.704;6.536;2023-05-19T15:09:57;5.53;;;2.57;;
58338;SDS011;68636;52.704;6.536;2023-05-19T15:12:23;8.27;;;2.00;;
58338;SDS011;68636;52.704;6.536;2023-05-19T15:14:49;8.37;;;2.30;;
58338;SDS011;68636;52.704;6.536;2023-05-19T15:17:15;6.80;;;1.60;;
58338;SDS011;68636;52.704;6.536;2023-05-19T15:19:41;5.23;;;1.60;;
58338;SDS011;68636;52.704;6.536;2023-05-19T15:22:07;8.13;;;1.50;;
58338;SDS011;68636;52.704;6.536;2023-05-19T15:24:33;9.43;;;2.10;;
58338;SDS011;68636;52.704;6.536;2023-05-19T15:26:59;6.53;;;1.60;;
58338;SDS011;68636;52.704;6.536;2023-05-19T15:29:25;5.53;;;1.50;;
58338;SDS011;68636;52.704;6.536;2023-05-19T15:31:51;6.70;;;2.03;;
58338;SDS011;68636;52.704;6.536;2023-05-19T15:34:18;5.17;;;1.80;;
58338;SDS011;68636;52.704;6.536;2023-05-19T15:36:44;6.82;;;1.30;;
58338;SDS011;68636;52.704;6.536;2023-05-19T15:39:10;4.25;;;1.30;;
58338;SDS011;68636;52.704;6.536;2023-05-19T15:41:37;13.48;;;4.40;;
58338;SDS011;68636;52.704;6.536;2023-05-19T15:44:03;8.87;;;2.73;;